Time;durP1;ratioP1;P1;durP2;ratioP2;P2;SDS_P1;SDS_P2;PMS_P1;PMS_P2;Temp;Humidity;BMP_temperature;BMP_pressure;BME280_temperature;BME280_humidity;BME280_pressure;Samples;Min_cycle;Max_cycle;Signal;HPM_P1;HPM_P2
2021/05/04 04:01:31;;;;;;;4.73;3.20;;;6.20;96.30;;;;;;5358704;23;20535;-79
2021/05/04 04:03:57;;;;;;;17.73;8.43;;;6.20;96.30;;;;;;4868598;29;20475;-79
2021/05/04 04:06:22;;;;;;;10.40;4.27;;;6.30;96.30;;;;;;4859856;29;20419;-79
2021/05/04 04:08:48;;;;;;;6.17;5.30;;;6.30;96.30;;;;;;4882126;29;20192;-79
2021/05/04 04:11:14;;;;;;;8.53;6.03;;;6.40;96.30;;;;;;4896336;29;20216;-79
2021/05/04 04:13:40;;;;;;;10.93;7.10;;;6.50;96.30;;;;;;4896380;29;20556;-78
2021/05/04 04:16:05;;;;;;;6.43;3.70;;;6.60;96.30;;;;;;4906408;23;20234;-77
2021/05/04 04:18:31;;;;;;;8.70;6.37;;;6.70;96.30;;;;;;4878775;29;20183;-79
2021/05/04 04:20:57;;;;;;;9.63;7.20;;;6.70;96.30;;;;;;4877996;29;20253;-78
2021/05/04 04:23:23;;;;;;;10.30;6.73;;;6.80;96.30;;;;;;4877646;29;20646;-78
2021/05/04 04:25:50;;;;;;;8.27;5.90;;;6.90;96.30;;;;;;4877497;29;20818;-78
2021/05/04 04:28:15;;;;;;;6.60;5.10;;;6.80;96.30;;;;;;4878357;29;20414;-78
2021/05/04 04:30:41;;;;;;;8.53;6.33;;;6.80;96.30;;;;;;4877818;29;20505;-78
2021/05/04 04:33:06;;;;;;;6.60;5.30;;;6.90;96.30;;;;;;4866648;29;20182;-78
2021/05/04 04:35:32;;;;;;;8.40;5.90;;;6.90;96.30;;;;;;4861339;29;20202;-78
2021/05/04 04:37:57;;;;;;;5.40;4.20;;;6.90;96.30;;;;;;4860748;29;20179;-78
2021/05/04 04:40:23;;;;;;;12.50;6.10;;;7.00;96.30;;;;;;4875547;29;20179;-78
2021/05/04 04:42:48;;;;;;;13.87;6.60;;;7.00;96.30;;;;;;4861344;29;20646;-77
2021/05/04 04:45:14;;;;;;;15.73;8.90;;;7.00;96.30;;;;;;4862452;29;20209;-78
2021/05/04 04:47:40;;;;;;;7.00;5.93;;;7.00;96.30;;;;;;4862715;29;20320;-78
2021/05/04 04:50:31;;;;;;;19.80;13.40;;;7.00;96.30;;;;;;4868601;29;20430;-77
2021/05/04 04:52:57;;;;;;;6.70;5.20;;;7.10;96.30;;;;;;4867746;29;20609;-77
2021/05/04 04:55:23;;;;;;;5.03;4.00;;;7.10;96.30;;;;;;4869111;29;20462;-77
2021/05/04 04:57:48;;;;;;;11.70;8.40;;;7.10;96.30;;;;;;4871095;29;20170;-77
2021/05/04 05:00:14;;;;;;;5.97;5.20;;;7.20;96.30;;;;;;4888364;29;20189;-77
2021/05/04 05:02:40;;;;;;;8.90;5.70;;;7.20;96.30;;;;;;4901686;29;20214;-77
2021/05/04 05:05:06;;;;;;;5.07;4.53;;;7.20;96.30;;;;;;4868598;29;20439;-77
2021/05/04 05:07:31;;;;;;;5.73;4.70;;;7.30;96.30;;;;;;4880165;29;20198;-78
2021/05/04 05:09:57;;;;;;;7.03;4.73;;;7.30;96.30;;;;;;4879165;29;20800;-77
2021/05/04 05:12:26;;;;;;;5.37;4.07;;;7.30;96.30;;;;;;4882145;29;20213;-77
2021/05/04 05:14:55;;;;;;;5.93;4.53;;;7.30;95.90;;;;;;4882700;29;20296;-78
2021/05/04 05:17:21;;;;;;;8.30;3.60;;;7.30;96.30;;;;;;4872291;29;20431;-78
2021/05/04 05:19:47;;;;;;;7.83;4.60;;;7.40;96.10;;;;;;4864914;29;20427;-78
2021/05/04 05:22:12;;;;;;;4.70;3.57;;;7.40;96.10;;;;;;4867029;29;20432;-78
2021/05/04 05:24:38;;;;;;;11.17;5.30;;;7.40;95.80;;;;;;4862752;29;20182;-78
2021/05/04 05:27:04;;;;;;;5.30;4.30;;;7.50;95.70;;;;;;4863444;29;20521;-77
2021/05/04 05:29:31;;;;;;;8.30;5.17;;;7.60;95.30;;;;;;4863240;29;20525;-77
2021/05/04 05:31:56;;;;;;;9.10;5.23;;;7.80;94.40;;;;;;4874200;29;20419;-77
2021/05/04 05:34:22;;;;;;;8.97;4.90;;;7.90;93.60;;;;;;4863134;29;20447;-78
2021/05/04 05:36:48;;;;;;;11.37;5.60;;;7.90;93.10;;;;;;4861124;29;20277;-78
2021/05/04 05:39:15;;;;;;;5.23;4.73;;;8.00;92.30;;;;;;4861379;29;20311;-78
2021/05/04 05:41:41;;;;;;;7.67;5.20;;;8.10;92.80;;;;;;4863065;29;20177;-78
2021/05/04 05:44:07;;;;;;;7.37;4.57;;;8.10;93.00;;;;;;4863168;29;20423;-77
2021/05/04 05:46:32;;;;;;;6.40;4.50;;;8.10;92.60;;;;;;4880852;29;20296;-77
2021/05/04 05:48:58;;;;;;;6.43;3.97;;;8.20;91.90;;;;;;4870463;29;21350;-77
2021/05/04 05:51:24;;;;;;;8.53;5.17;;;8.10;92.60;;;;;;4858189;29;20187;-77
2021/05/04 05:53:50;;;;;;;7.80;5.90;;;8.20;92.50;;;;;;4876667;29;20202;-77
2021/05/04 05:56:16;;;;;;;7.90;4.50;;;8.30;91.70;;;;;;4860225;29;20441;-77
2021/05/04 05:58:41;;;;;;;9.40;5.77;;;8.30;91.70;;;;;;4865953;29;20181;-77
2021/05/04 06:01:07;;;;;;;5.00;4.20;;;8.30;91.70;;;;;;4856190;29;20174;-78
2021/05/04 06:03:32;;;;;;;7.70;6.07;;;8.20;91.80;;;;;;4860816;29;20745;-78
2021/05/04 06:05:58;;;;;;;8.67;6.30;;;8.30;92.10;;;;;;4859770;29;20206;-78
2021/05/04 06:08:24;;;;;;;7.07;4.30;;;8.30;91.90;;;;;;4864515;29;20610;-77
2021/05/04 06:10:50;;;;;;;4.30;3.90;;;8.30;91.40;;;;;;4858635;29;20182;-78
2021/05/04 06:13:16;;;;;;;5.97;4.27;;;8.30;92.10;;;;;;4859831;29;20194;-78
2021/05/04 06:15:43;;;;;;;5.20;3.73;;;8.40;91.30;;;;;;4859776;29;20467;-77
2021/05/04 06:18:09;;;;;;;6.20;4.63;;;8.40;91.30;;;;;;4860076;29;20635;-77
2021/05/04 06:20:35;;;;;;;6.60;4.20;;;8.30;91.80;;;;;;4858689;29;20433;-77
2021/05/04 06:23:01;;;;;;;16.10;4.13;;;8.30;91.90;;;;;;4860229;29;20419;-77
2021/05/04 06:25:27;;;;;;;5.03;4.03;;;8.30;92.30;;;;;;4859768;29;20791;-76
2021/05/04 06:27:53;;;;;;;3.97;3.40;;;8.30;91.80;;;;;;4861693;29;20906;-76
2021/05/04 06:30:20;;;;;;;4.77;3.83;;;8.40;91.60;;;;;;4859479;29;20181;-76
2021/05/04 06:32:47;;;;;;;4.70;3.60;;;8.40;91.40;;;;;;4870514;29;20481;-76
2021/05/04 06:35:17;;;;;;;3.57;2.87;;;8.30;92.00;;;;;;4867111;29;20477;-76
2021/05/04 06:37:43;;;;;;;5.47;3.67;;;8.40;91.20;;;;;;4856960;29;20442;-76
2021/05/04 06:40:09;;;;;;;4.60;3.37;;;8.40;91.40;;;;;;4841247;29;20412;-76
2021/05/04 06:42:35;;;;;;;4.37;3.03;;;8.40;92.10;;;;;;4854613;29;20215;-77
2021/05/04 06:45:01;;;;;;;4.03;3.53;;;8.40;92.70;;;;;;4857352;29;20447;-76
2021/05/04 06:47:26;;;;;;;3.20;2.87;;;8.40;91.90;;;;;;4860317;29;20210;-77
2021/05/04 06:49:51;;;;;;;3.77;2.80;;;8.50;91.00;;;;;;4867106;29;20278;-76
2021/05/04 06:52:17;;;;;;;4.57;3.03;;;8.60;91.40;;;;;;4878409;29;20194;-77
2021/05/04 06:54:44;;;;;;;4.63;3.10;;;8.60;91.10;;;;;;4858375;29;20674;-77
2021/05/04 06:57:10;;;;;;;7.00;4.57;;;8.60;91.70;;;;;;4863418;29;20182;-76
2021/05/04 06:59:35;;;;;;;4.03;2.77;;;8.60;91.40;;;;;;4860280;29;20480;-77
2021/05/04 07:02:01;;;;;;;5.03;3.37;;;8.70;90.80;;;;;;4861520;29;20694;-77
2021/05/04 07:04:26;;;;;;;2.67;2.47;;;8.70;91.10;;;;;;4860776;29;20573;-76
2021/05/04 07:06:52;;;;;;;9.63;3.20;;;8.70;91.60;;;;;;4860234;29;20210;-77
2021/05/04 07:09:17;;;;;;;2.93;2.63;;;8.70;91.00;;;;;;4875266;29;20185;-77
2021/05/04 07:11:43;;;;;;;3.40;2.90;;;8.80;90.10;;;;;;4870730;29;20205;-77
2021/05/04 07:14:08;;;;;;;3.37;2.87;;;8.80;90.50;;;;;;4875407;29;20210;-77
2021/05/04 07:16:35;;;;;;;3.03;2.40;;;8.80;89.40;;;;;;4874528;29;20308;-78
2021/05/04 07:19:01;;;;;;;4.13;3.37;;;8.90;89.60;;;;;;4874874;29;20196;-78
2021/05/04 07:21:27;;;;;;;3.70;3.03;;;9.00;89.50;;;;;;4861027;29;20893;-78
2021/05/04 07:23:53;;;;;;;3.63;2.77;;;9.00;89.90;;;;;;4860777;29;20186;-77
2021/05/04 07:26:18;;;;;;;3.03;2.60;;;9.10;89.00;;;;;;4858996;29;20454;-77
2021/05/04 07:28:45;;;;;;;3.60;2.57;;;9.20;88.80;;;;;;4858764;29;20700;-77
2021/05/04 07:31:11;;;;;;;3.83;2.37;;;9.30;88.10;;;;;;4860891;29;20179;-77
2021/05/04 07:33:36;;;;;;;3.20;2.70;;;9.30;87.50;;;;;;4860585;29;20463;-77
2021/05/04 07:36:02;;;;;;;2.63;2.43;;;9.50;86.80;;;;;;4860587;29;20458;-77
2021/05/04 07:38:28;;;;;;;3.70;2.77;;;9.60;86.60;;;;;;4859593;29;20182;-77
2021/05/04 07:40:54;;;;;;;2.40;2.00;;;9.70;86.30;;;;;;4842773;29;20420;-78
2021/05/04 07:43:20;;;;;;;3.83;2.70;;;9.80;85.60;;;;;;4850581;29;20187;-77
2021/05/04 07:45:45;;;;;;;3.57;2.40;;;9.90;85.70;;;;;;4841986;29;20479;-78
2021/05/04 07:48:12;;;;;;;3.70;2.57;;;10.00;85.00;;;;;;4840487;29;20221;-77
2021/05/04 07:50:39;;;;;;;2.67;2.47;;;10.20;85.30;;;;;;4840989;29;20182;-77
2021/05/04 07:53:04;;;;;;;3.87;2.67;;;10.40;84.40;;;;;;4840823;29;20484;-77
2021/05/04 07:55:30;;;;;;;3.00;2.70;;;10.60;84.70;;;;;;4841971;29;20440;-77
2021/05/04 07:57:57;;;;;;;2.77;2.50;;;10.70;84.90;;;;;;4840287;29;20246;-77
2021/05/04 08:00:23;;;;;;;3.70;2.50;;;10.80;82.70;;;;;;4851470;29;20462;-77
2021/05/04 08:02:48;;;;;;;19.37;2.40;;;10.90;82.70;;;;;;4860414;29;20448;-77
2021/05/04 08:05:14;;;;;;;3.40;2.10;;;11.10;83.10;;;;;;4865296;29;20201;-77
2021/05/04 08:07:40;;;;;;;6.03;2.40;;;11.30;81.60;;;;;;4859521;29;20182;-77
2021/05/04 08:10:09;;;;;;;2.63;2.33;;;11.40;81.20;;;;;;4858862;29;20185;-77
2021/05/04 08:12:36;;;;;;;2.90;2.10;;;11.60;80.70;;;;;;4859388;29;20337;-77
2021/05/04 08:15:03;;;;;;;5.07;2.50;;;11.70;80.90;;;;;;4860004;29;20482;-77
2021/05/04 08:17:29;;;;;;;2.20;2.00;;;12.00;79.90;;;;;;4869445;29;20434;-77
2021/05/04 08:19:59;;;;;;;3.23;1.93;;;12.20;79.50;;;;;;4862141;29;20918;-77
2021/05/04 08:22:25;;;;;;;2.53;2.33;;;12.60;79.70;;;;;;4858918;29;20808;-77
2021/05/04 08:24:51;;;;;;;4.47;2.30;;;12.60;80.10;;;;;;4876102;29;20521;-78
2021/05/04 08:27:16;;;;;;;2.50;2.30;;;12.60;78.90;;;;;;4878032;29;20205;-77
2021/05/04 08:29:42;;;;;;;2.93;2.63;;;12.80;77.70;;;;;;4877407;29;20509;-77
2021/05/04 08:32:07;;;;;;;3.40;1.80;;;12.70;77.30;;;;;;4874041;29;20190;-77
2021/05/04 08:34:33;;;;;;;6.67;2.60;;;12.40;77.10;;;;;;4859912;29;20690;-76
2021/05/04 08:37:00;;;;;;;2.60;1.93;;;12.60;78.00;;;;;;4876887;29;20209;-78
2021/05/04 08:39:26;;;;;;;3.37;2.57;;;12.40;77.40;;;;;;4859668;29;20900;-77
2021/05/04 08:41:52;;;;;;;5.57;1.80;;;12.40;77.70;;;;;;4863046;29;20447;-77
2021/05/04 08:44:21;;;;;;;2.30;1.80;;;12.60;75.50;;;;;;4878203;29;20546;-75
2021/05/04 08:46:49;;;;;;;2.60;2.00;;;12.80;75.10;;;;;;4877892;29;20458;-77
2021/05/04 08:49:18;;;;;;;2.70;1.77;;;12.90;76.80;;;;;;4863142;29;20442;-77
2021/05/04 08:51:48;;;;;;;3.50;2.23;;;12.90;77.00;;;;;;4858239;29;21124;-77
2021/05/04 08:54:15;;;;;;;2.80;2.23;;;13.00;76.50;;;;;;4859448;29;20955;-78
2021/05/04 08:56:41;;;;;;;1.77;1.60;;;13.20;79.50;;;;;;4873365;29;20511;-77
2021/05/04 08:59:07;;;;;;;2.90;2.03;;;13.50;75.80;;;;;;4859782;29;20415;-78
2021/05/04 09:01:33;;;;;;;5.70;1.77;;;13.70;77.90;;;;;;4859653;29;20210;-78
2021/05/04 09:04:06;;;;;;;3.17;1.63;;;13.70;74.80;;;;;;4859704;29;20474;-75
2021/05/04 09:06:40;;;;;;;1.77;1.67;;;13.80;74.60;;;;;;4858812;29;20210;-76
2021/05/04 09:09:17;;;;;;;1.70;1.40;;;13.70;74.50;;;;;;4859446;29;20939;-78
2021/05/04 09:14:51;;;;;;;1.87;1.30;;;13.60;76.60;;;;;;4856064;29;20477;-77
2021/05/04 09:20:21;;;;;;;3.63;1.57;;;13.40;74.80;;;;;;4870414;29;20416;-77
2021/05/04 09:22:47;;;;;;;2.03;1.47;;;13.50;76.20;;;;;;4841188;29;20424;-77
2021/05/04 09:25:31;;;;;;;1.70;1.50;;;13.50;72.70;;;;;;4854057;29;20481;-77
2021/05/04 09:28:10;;;;;;;2.43;1.40;;;13.30;77.00;;;;;;4855684;29;20190;-76
2021/05/04 09:30:37;;;;;;;2.30;1.43;;;13.20;77.20;;;;;;4858345;29;20435;-76
2021/05/04 09:33:07;;;;;;;6.20;1.50;;;13.40;76.10;;;;;;4859291;29;20419;-77
2021/05/04 09:35:33;;;;;;;2.43;1.57;;;13.40;75.30;;;;;;4859513;29;20522;-79
2021/05/04 09:38:13;;;;;;;4.80;1.30;;;13.30;76.90;;;;;;4857835;29;20517;-78
2021/05/04 09:40:40;;;;;;;10.27;1.37;;;13.00;79.70;;;;;;4858158;29;20431;-78
2021/05/04 09:43:18;;;;;;;3.03;1.37;;;12.80;78.30;;;;;;4870162;29;20927;-78
2021/05/04 09:45:49;;;;;;;5.43;1.13;;;12.70;81.10;;;;;;4866510;29;20588;-79
2021/05/04 09:48:31;;;;;;;7.93;1.13;;;12.70;81.30;;;;;;4857537;29;20431;-79
2021/05/04 09:51:04;;;;;;;7.87;0.93;;;12.70;77.20;;;;;;4857373;29;20458;-79
2021/05/04 09:53:46;;;;;;;1.10;1.00;;;12.70;79.40;;;;;;4861325;29;20473;-80
2021/05/04 09:56:13;;;;;;;2.20;1.17;;;12.60;80.60;;;;;;4862108;29;20429;-80
2021/05/04 09:58:41;;;;;;;6.27;1.00;;;12.60;78.90;;;;;;4862877;29;20506;-80
2021/05/04 10:01:09;;;;;;;2.17;1.87;;;12.60;81.60;;;;;;4862294;29;20524;-79
2021/05/04 10:03:36;;;;;;;2.03;0.93;;;12.70;79.80;;;;;;4862793;29;20419;-79
2021/05/04 10:06:04;;;;;;;3.30;1.87;;;12.60;78.80;;;;;;4876280;29;20840;-80
2021/05/04 10:08:32;;;;;;;3.87;1.03;;;12.40;79.80;;;;;;4877094;29;20466;-80
2021/05/04 10:11:05;;;;;;;4.73;1.10;;;12.30;81.90;;;;;;4877056;29;20434;-80
2021/05/04 10:13:32;;;;;;;4.70;1.30;;;12.30;81.10;;;;;;4861951;29;20812;-80
2021/05/04 10:15:59;;;;;;;1.10;1.00;;;12.30;80.00;;;;;;4860437;29;20959;-80
2021/05/04 10:18:25;;;;;;;1.30;1.07;;;12.30;79.70;;;;;;4876270;29;20427;-80
2021/05/04 10:20:56;;;;;;;4.90;1.20;;;12.40;80.20;;;;;;4876954;29;20431;-76
2021/05/04 10:23:23;;;;;;;1.20;1.00;;;12.50;79.00;;;;;;4875844;29;20431;-77
2021/05/04 10:26:03;;;;;;;1.57;1.13;;;12.40;80.40;;;;;;4876035;29;20438;-77
2021/05/04 10:28:34;;;;;;;4.63;1.30;;;12.20;80.50;;;;;;4860530;29;20458;-77
2021/05/04 10:31:02;;;;;;;5.07;1.10;;;12.20;79.80;;;;;;4874948;29;20467;-77
2021/05/04 10:33:34;;;;;;;1.10;0.90;;;12.20;80.10;;;;;;4861303;29;20470;-77
2021/05/04 10:36:02;;;;;;;1.90;1.20;;;12.20;80.70;;;;;;4882273;29;20465;-77
2021/05/04 10:38:51;;;;;;;5.23;1.73;;;12.30;81.20;;;;;;4858952;29;20427;-77
2021/05/04 10:41:17;;;;;;;4.63;1.30;;;12.60;79.20;;;;;;4869376;29;20507;-78
2021/05/04 10:43:43;;;;;;;4.13;1.20;;;12.70;80.10;;;;;;4861661;29;20936;-77
2021/05/04 10:46:29;;;;;;;5.80;1.33;;;13.00;79.50;;;;;;4860128;29;20234;-77
2021/05/04 10:48:54;;;;;;;1.43;0.90;;;13.20;80.30;;;;;;4875266;29;20269;-77
2021/05/04 10:51:44;;;;;;;3.17;1.40;;;13.30;77.50;;;;;;4871222;29;20861;-77
2021/05/04 10:54:11;;;;;;;1.30;1.10;;;13.30;76.50;;;;;;4871429;29;20210;-77
2021/05/04 10:56:43;;;;;;;10.60;1.17;;;13.40;78.50;;;;;;4870680;29;20537;-77
2021/05/04 10:59:34;;;;;;;1.57;1.40;;;13.50;78.10;;;;;;4860188;29;20438;-77
2021/05/04 11:02:22;;;;;;;1.40;1.30;;;13.70;78.80;;;;;;4861487;29;20434;-77
2021/05/04 11:04:48;;;;;;;2.00;1.20;;;13.50;77.00;;;;;;4860577;29;20546;-77
2021/05/04 11:07:53;;;;;;;4.20;1.50;;;13.60;76.20;;;;;;4860676;29;20962;-78
2021/05/04 11:10:19;;;;;;;2.80;1.00;;;13.60;78.30;;;;;;4850206;29;20530;-77
2021/05/04 11:12:45;;;;;;;4.63;1.50;;;14.00;78.40;;;;;;4864343;29;20471;-78
2021/05/04 11:15:19;;;;;;;1.67;1.20;;;14.00;75.30;;;;;;4867047;29;20501;-77
2021/05/04 11:17:45;;;;;;;2.70;1.40;;;14.10;78.90;;;;;;4868498;29;20622;-78
2021/05/04 11:20:34;;;;;;;10.37;1.50;;;14.00;71.40;;;;;;4869442;29;20425;-78
2021/05/04 11:23:00;;;;;;;6.70;1.40;;;13.80;75.50;;;;;;4897054;29;20714;-78
2021/05/04 11:25:41;;;;;;;6.13;1.47;;;13.70;75.60;;;;;;4871437;29;20442;-78
2021/05/04 11:28:07;;;;;;;7.07;1.40;;;13.70;73.30;;;;;;4862550;29;20431;-78
2021/05/04 11:30:36;;;;;;;3.47;1.40;;;13.80;78.90;;;;;;4860920;29;20481;-77
2021/05/04 11:33:26;;;;;;;1.20;1.10;;;13.90;75.30;;;;;;4860838;29;20264;-78
2021/05/04 11:35:52;;;;;;;3.10;1.97;;;14.20;73.00;;;;;;4854747;29;20474;-79
2021/05/04 11:38:21;;;;;;;2.03;1.20;;;14.30;73.50;;;;;;4861251;29;20418;-78
2021/05/04 11:40:47;;;;;;;1.70;1.57;;;14.10;74.40;;;;;;4864105;29;20227;-79
2021/05/04 11:43:19;;;;;;;3.53;1.50;;;13.90;75.80;;;;;;4879331;29;21036;-79
2021/05/04 11:45:45;;;;;;;3.87;1.60;;;13.70;76.90;;;;;;4847384;29;20514;-79
2021/05/04 11:48:11;;;;;;;1.57;1.43;;;13.50;76.90;;;;;;4859598;29;20419;-79
2021/05/04 11:50:41;;;;;;;3.50;1.50;;;13.50;75.20;;;;;;4871429;29;20430;-78
2021/05/04 11:53:09;;;;;;;3.70;1.57;;;13.70;76.10;;;;;;4875219;29;20273;-79
2021/05/04 11:55:42;;;;;;;1.70;1.53;;;13.80;76.80;;;;;;4860493;29;20435;-78
2021/05/04 11:58:13;;;;;;;1.67;1.57;;;13.60;75.50;;;;;;4858344;29;20455;-78
2021/05/04 12:00:39;;;;;;;2.37;1.40;;;13.40;76.70;;;;;;4860787;29;20851;-78
2021/05/04 12:03:10;;;;;;;5.90;1.63;;;13.40;75.90;;;;;;4878752;29;21013;-79
2021/05/04 12:05:37;;;;;;;3.73;1.80;;;13.20;77.00;;;;;;4864793;29;20765;-79
2021/05/04 12:08:05;;;;;;;4.50;1.87;;;13.00;78.70;;;;;;4859778;29;20422;-79
2021/05/04 12:10:49;;;;;;;2.77;1.67;;;12.80;77.00;;;;;;4859253;29;20988;-79
2021/05/04 12:13:23;;;;;;;1.90;1.40;;;12.60;80.30;;;;;;4841699;29;20911;-79
2021/05/04 12:15:53;;;;;;;4.13;1.70;;;12.70;79.40;;;;;;4876565;29;20462;-79
2021/05/04 12:18:23;;;;;;;4.40;1.70;;;12.70;80.80;;;;;;4884914;29;20426;-79
2021/05/04 12:20:51;;;;;;;2.57;1.90;;;12.70;81.30;;;;;;4859822;29;20439;-79
2021/05/04 12:23:32;;;;;;;2.33;1.53;;;12.90;80.40;;;;;;4860627;29;20419;-79
2021/05/04 12:26:07;;;;;;;6.23;1.80;;;12.90;80.30;;;;;;4860300;29;20500;-79
2021/05/04 12:28:36;;;;;;;2.50;1.83;;;13.10;80.30;;;;;;4860399;29;20426;-79
2021/05/04 12:31:09;;;;;;;1.63;1.40;;;13.30;81.80;;;;;;4860812;29;20419;-79
2021/05/04 12:33:37;;;;;;;2.33;1.67;;;13.40;78.40;;;;;;4874085;29;20459;-79
2021/05/04 12:38:47;;;;;;;1.60;1.50;;;13.30;83.30;;;;;;4859202;29;20443;-79
2021/05/04 12:41:23;;;;;;;2.83;1.60;;;13.30;81.40;;;;;;4859806;29;20395;-79
2021/05/04 12:44:12;;;;;;;4.57;1.60;;;13.10;82.60;;;;;;4860040;29;20418;-79
2021/05/04 12:46:44;;;;;;;3.30;1.40;;;13.30;82.20;;;;;;4858858;29;20431;-79
2021/05/04 12:49:10;;;;;;;2.67;2.23;;;13.60;80.50;;;;;;4859619;29;20447;-79
2021/05/04 12:51:38;;;;;;;1.40;1.30;;;13.60;84.60;;;;;;4859784;29;20790;-78
2021/05/04 12:54:10;;;;;;;3.23;1.40;;;13.30;81.30;;;;;;4860506;29;21058;-79
2021/05/04 12:56:36;;;;;;;11.53;1.63;;;13.20;80.80;;;;;;4859496;29;20435;-79
2021/05/04 12:59:25;;;;;;;7.40;1.97;;;13.00;80.30;;;;;;4856871;29;20817;-79
2021/05/04 13:01:52;;;;;;;2.80;1.60;;;12.90;82.20;;;;;;4861139;29;20474;-78
2021/05/04 13:04:40;;;;;;;2.00;1.60;;;12.80;80.10;;;;;;4865002;29;20922;-79
2021/05/04 13:07:24;;;;;;;7.43;2.20;;;12.70;81.60;;;;;;4878361;29;20474;-79
2021/05/04 13:10:13;;;;;;;2.70;1.60;;;12.80;81.60;;;;;;4878744;29;20442;-79
2021/05/04 13:16:12;;;;;;;4.50;1.50;;;13.20;82.40;;;;;;4878286;29;20487;-79
2021/05/04 13:18:26;;;;;;;2.20;1.40;;;13.50;81.20;;;;;;4860695;29;20423;-79
2021/05/04 13:32:03;;;;;;;7.80;1.57;;;12.80;83.30;;;;;;4868909;29;20435;-78
2021/05/04 13:36:57;;;;;;;2.50;1.13;;;12.40;84.60;;;;;;4864259;29;20470;-78
2021/05/04 13:49:53;;;;;;;1.77;1.10;;;12.20;85.30;;;;;;4844289;29;20236;-78
2021/05/04 13:52:19;;;;;;;3.60;1.30;;;12.10;86.50;;;;;;4863230;29;20418;-79
2021/05/04 13:54:44;;;;;;;4.77;1.20;;;12.10;87.30;;;;;;4863590;29;20315;-78
2021/05/04 13:57:15;;;;;;;4.23;0.90;;;11.80;88.60;;;;;;4860376;29;20250;-78
2021/05/04 13:59:40;;;;;;;3.00;0.90;;;11.70;87.60;;;;;;4861935;29;20175;-78
2021/05/04 14:02:12;;;;;;;1.80;0.80;;;11.60;87.20;;;;;;4861207;29;20515;-78
2021/05/04 14:04:51;;;;;;;4.60;1.00;;;11.60;87.40;;;;;;4859138;29;20304;-79
2021/05/04 14:26:13;;;;;;;2.90;0.80;;;11.90;89.70;;;;;;4866109;29;20506;-79
2021/05/04 14:28:39;;;;;;;1.00;0.60;;;12.00;87.60;;;;;;4858169;29;20538;-79
2021/05/04 14:31:05;;;;;;;0.90;0.53;;;11.90;87.70;;;;;;4861731;29;20526;-80
2021/05/04 14:33:33;;;;;;;1.53;0.90;;;11.70;86.00;;;;;;4868556;29;20559;-79
2021/05/04 14:36:14;;;;;;;3.40;0.60;;;11.80;86.30;;;;;;4859500;29;20222;-79
2021/05/04 14:38:49;;;;;;;2.87;0.73;;;11.90;87.30;;;;;;4861359;29;20904;-78
2021/05/04 14:44:19;;;;;;;1.17;0.70;;;11.90;82.90;;;;;;4837976;29;20498;-78
2021/05/04 14:47:13;;;;;;;4.17;0.60;;;11.90;83.20;;;;;;4870713;29;20462;-78
2021/05/04 15:02:46;;;;;;;1.30;0.60;;;12.10;83.70;;;;;;4858817;29;20757;-78
2021/05/04 15:05:14;;;;;;;0.80;0.60;;;12.10;81.60;;;;;;4860557;29;20451;-78
2021/05/04 15:07:40;;;;;;;1.40;0.60;;;12.20;81.70;;;;;;4864279;29;20442;-78
2021/05/04 15:10:05;;;;;;;0.90;0.63;;;12.10;83.40;;;;;;4863998;29;20443;-78
2021/05/04 15:12:32;;;;;;;3.43;1.07;;;12.20;83.40;;;;;;4866268;29;20194;-78
2021/05/04 15:14:59;;;;;;;2.07;1.80;;;12.20;82.60;;;;;;4868547;29;20214;-77
2021/05/04 15:18:18;;;;;;;1.50;1.20;;;12.20;82.50;;;;;;4860574;29;20440;-79
2021/05/04 15:22:57;;;;;;;5.57;1.00;;;12.10;82.60;;;;;;4860932;29;20491;-77
2021/05/04 15:25:23;;;;;;;4.07;0.83;;;12.10;83.20;;;;;;4858709;29;20463;-77
2021/05/04 15:27:52;;;;;;;2.00;1.23;;;12.10;82.20;;;;;;4854603;29;20257;-78
2021/05/04 15:30:19;;;;;;;3.30;1.43;;;11.90;84.10;;;;;;4860199;29;20650;-77
2021/05/04 15:33:01;;;;;;;2.20;1.13;;;12.10;83.00;;;;;;4868866;29;20438;-78
2021/05/04 15:35:32;;;;;;;6.83;3.73;;;12.10;83.00;;;;;;4864158;29;20574;-77
2021/05/04 15:37:58;;;;;;;3.33;1.40;;;12.00;83.10;;;;;;4870528;29;20812;-77
2021/05/04 15:40:24;;;;;;;1.40;1.00;;;11.90;83.80;;;;;;4884438;29;20518;-78
2021/05/04 15:42:49;;;;;;;2.07;0.90;;;11.70;83.90;;;;;;4861781;29;20206;-77
2021/05/04 15:45:15;;;;;;;0.97;0.70;;;11.60;83.90;;;;;;4867820;29;20206;-78
2021/05/04 15:47:48;;;;;;;1.37;0.63;;;11.50;85.70;;;;;;4859872;29;20265;-78
2021/05/04 15:55:33;;;;;;;1.13;0.70;;;11.20;86.30;;;;;;4869595;29;20896;-78
2021/05/04 16:03:46;;;;;;;0.80;0.60;;;10.90;89.00;;;;;;4890885;23;20499;-81
2021/05/04 16:06:29;;;;;;;1.20;0.70;;;10.90;88.90;;;;;;4900115;29;20421;-81
2021/05/04 16:09:05;;;;;;;1.00;0.77;;;10.90;89.70;;;;;;4897733;29;20429;-80
2021/05/04 16:11:31;;;;;;;1.73;1.00;;;10.80;90.10;;;;;;4894436;29;20536;-81
2021/05/04 16:13:58;;;;;;;1.00;0.80;;;10.70;91.40;;;;;;4901088;29;20551;-81
2021/05/04 16:16:24;;;;;;;1.10;0.90;;;10.70;91.90;;;;;;4899918;29;20165;-81
2021/05/04 16:19:35;;;;;;;1.57;1.03;;;10.80;91.80;;;;;;4899867;29;20415;-82
2021/05/04 16:21:44;;;;;;;1.63;0.70;;;10.80;92.90;;;;;;4901995;29;20196;-81
2021/05/04 16:24:20;;;;;;;1.00;0.80;;;10.80;92.00;;;;;;4899475;29;20449;-81
2021/05/04 16:26:55;;;;;;;1.10;1.00;;;10.80;92.50;;;;;;4881681;29;20417;-81
2021/05/04 16:29:38;;;;;;;5.00;0.90;;;10.80;91.40;;;;;;4882278;29;20425;-81
2021/05/04 16:32:04;;;;;;;11.13;1.10;;;10.80;91.80;;;;;;4890673;29;20439;-81
2021/05/04 16:34:30;;;;;;;1.40;1.20;;;10.80;91.70;;;;;;4901327;29;20500;-81
2021/05/04 16:36:55;;;;;;;1.20;0.70;;;10.80;91.10;;;;;;4896316;29;20434;-81
2021/05/04 16:39:20;;;;;;;2.60;0.60;;;10.80;91.80;;;;;;4902652;29;20546;-81
2021/05/04 16:41:46;;;;;;;1.77;0.80;;;10.70;91.20;;;;;;4899949;29;20213;-81
2021/05/04 16:44:11;;;;;;;2.33;0.90;;;10.70;91.80;;;;;;4902030;29;20201;-81
2021/05/04 16:46:56;;;;;;;1.93;0.70;;;10.70;91.70;;;;;;4897498;29;20224;-82
2021/05/04 16:49:27;;;;;;;1.10;0.70;;;10.70;90.30;;;;;;4898314;29;20172;-81
2021/05/04 16:51:56;;;;;;;0.80;0.60;;;10.70;89.20;;;;;;4900161;29;20791;-81
2021/05/04 16:54:22;;;;;;;8.10;0.90;;;10.60;89.30;;;;;;4885720;29;20468;-81
2021/05/04 16:56:47;;;;;;;1.20;0.60;;;10.50;89.70;;;;;;4900063;29;20421;-81
2021/05/04 16:59:13;;;;;;;4.70;1.00;;;10.40;89.70;;;;;;4904178;29;20181;-81
2021/05/04 17:01:39;;;;;;;1.50;1.00;;;10.50;89.40;;;;;;4903899;29;20268;-82
2021/05/04 17:04:04;;;;;;;1.10;0.70;;;10.50;89.30;;;;;;4903072;29;20255;-81
2021/05/04 17:06:42;;;;;;;1.40;0.80;;;10.30;89.90;;;;;;4902409;29;20185;-82
2021/05/04 17:09:27;;;;;;;3.57;0.70;;;10.40;89.10;;;;;;4901676;29;20173;-81
2021/05/04 17:11:52;;;;;;;2.20;1.63;;;10.40;88.40;;;;;;4897460;29;20496;-81
2021/05/04 17:14:18;;;;;;;4.40;0.93;;;10.30;89.50;;;;;;4903082;29;20492;-82
2021/05/04 17:16:44;;;;;;;1.73;1.30;;;10.30;88.00;;;;;;4900600;29;20177;-81
2021/05/04 17:19:09;;;;;;;1.40;0.83;;;10.40;87.80;;;;;;4900498;29;20185;-81
2021/05/04 17:21:35;;;;;;;2.27;1.80;;;10.40;87.50;;;;;;4901884;29;20267;-82
2021/05/04 17:24:00;;;;;;;1.97;0.90;;;10.50;87.70;;;;;;4901065;29;20268;-82
2021/05/04 17:26:28;;;;;;;2.20;1.17;;;10.50;87.40;;;;;;4902761;29;20279;-83
2021/05/04 17:28:55;;;;;;;1.20;0.70;;;10.50;87.30;;;;;;4906300;29;20175;-81
2021/05/04 17:31:20;;;;;;;1.33;0.93;;;10.50;88.60;;;;;;4900631;29;20437;-82
2021/05/04 17:33:46;;;;;;;1.67;0.70;;;10.50;88.10;;;;;;4902579;29;20485;-82
2021/05/04 17:36:11;;;;;;;1.10;0.80;;;10.50;87.00;;;;;;4904576;29;20181;-82
2021/05/04 17:38:37;;;;;;;3.20;2.50;;;10.60;87.60;;;;;;4902979;29;20184;-82
2021/05/04 17:41:05;;;;;;;1.37;0.83;;;10.60;87.20;;;;;;4908306;29;20193;-83
2021/05/04 17:43:31;;;;;;;1.60;1.30;;;10.50;87.80;;;;;;4896847;29;20209;-82
2021/05/04 17:45:57;;;;;;;2.80;1.20;;;10.50;87.70;;;;;;4912292;29;20484;-82
2021/05/04 17:48:23;;;;;;;2.20;0.80;;;10.50;86.80;;;;;;4897040;29;20421;-83
2021/05/04 17:50:54;;;;;;;2.20;1.30;;;10.50;87.00;;;;;;4899031;29;20421;-83
2021/05/04 17:53:20;;;;;;;1.73;1.00;;;10.40;87.90;;;;;;4900239;29;20197;-83
2021/05/04 17:55:46;;;;;;;1.50;1.10;;;10.40;87.40;;;;;;4900053;29;20473;-83
2021/05/04 17:58:14;;;;;;;0.90;0.70;;;10.40;87.30;;;;;;4900619;29;20425;-82
2021/05/04 18:00:40;;;;;;;3.37;0.67;;;10.50;86.00;;;;;;4899048;29;20425;-83
2021/05/04 18:03:05;;;;;;;2.50;0.87;;;10.50;87.20;;;;;;4883882;29;20472;-82
2021/05/04 18:05:31;;;;;;;2.30;1.03;;;10.40;86.60;;;;;;4880025;29;20189;-83
2021/05/04 18:08:00;;;;;;;3.17;1.00;;;10.40;87.40;;;;;;4884141;29;20181;-82
2021/05/04 18:10:25;;;;;;;2.40;1.10;;;10.40;86.00;;;;;;4894876;29;20177;-82
2021/05/04 18:13:12;;;;;;;2.00;0.70;;;10.20;87.70;;;;;;4900438;29;20446;-82
2021/05/04 18:21:01;;;;;;;1.70;1.20;;;10.00;88.30;;;;;;4892667;29;20405;-82
2021/05/04 18:23:32;;;;;;;1.93;1.67;;;10.00;87.90;;;;;;4902192;29;20594;-81
2021/05/04 18:26:00;;;;;;;1.80;0.80;;;9.90;87.50;;;;;;4901612;29;20424;-81
2021/05/04 18:28:27;;;;;;;1.37;0.60;;;9.90;88.20;;;;;;4898695;29;21230;-80
2021/05/04 18:31:00;;;;;;;1.30;0.70;;;9.80;88.80;;;;;;4900684;29;20796;-80